createdAt,value
2023-02-19T00:00:48.221Z,97866.00
2023-02-19T00:02:52.396Z,97862.72
2023-02-19T00:04:55.206Z,97870.03
2023-02-19T00:06:58.111Z,97871.03
2023-02-19T00:09:00.905Z,97868.72
2023-02-19T00:11:04.718Z,97870.56
2023-02-19T00:13:07.574Z,97861.78
2023-02-19T00:15:11.811Z,97869.94
2023-02-19T00:17:14.769Z,97870.94
2023-02-19T00:19:19.385Z,97865.81
2023-02-19T00:21:22.320Z,97870.47
2023-02-19T00:23:25.096Z,97867.97
2023-02-19T00:25:27.872Z,97860.03
2023-02-19T00:27:30.725Z,97870.81
2023-02-19T00:29:33.838Z,97865.50
2023-02-19T00:31:38.019Z,97869.00
2023-02-19T00:33:40.800Z,97867.34
2023-02-19T00:35:43.538Z,97858.56
2023-02-19T00:37:46.343Z,97864.06
2023-02-19T00:39:49.740Z,97867.72
2023-02-19T00:41:53.234Z,97867.72
2023-02-19T00:43:58.091Z,97866.91
2023-02-19T00:46:00.864Z,97860.75
2023-02-19T00:48:05.127Z,97861.78
2023-02-19T00:50:07.869Z,97855.81
2023-02-19T00:52:10.717Z,97869.72
2023-02-19T00:54:13.916Z,97869.09
2023-02-19T00:56:17.088Z,97870.75
2023-02-19T00:58:19.834Z,97871.75
2023-02-19T01:00:22.889Z,97868.28
2023-02-19T01:02:26.872Z,97866.44
2023-02-19T01:04:31.220Z,97866.44
2023-02-19T01:06:34.609Z,97870.75
2023-02-19T01:08:38.003Z,97865.63
2023-02-19T01:10:40.727Z,97864.78
2023-02-19T01:12:43.453Z,97865.63
2023-02-19T01:14:46.590Z,97861.47
2023-02-19T01:16:49.345Z,97862.28
2023-02-19T01:18:52.760Z,97860.66
2023-02-19T01:20:56.933Z,97865.13
2023-02-19T01:22:59.696Z,97852.88
2023-02-19T01:25:02.481Z,97859.38
2023-02-19T01:27:05.419Z,97865.50
2023-02-19T01:29:08.200Z,97862.84
2023-02-19T01:31:14.943Z,97862.22
2023-02-19T01:33:17.828Z,97858.09
2023-02-19T01:35:20.569Z,97857.28
2023-02-19T01:37:24.738Z,97847.50
2023-02-19T01:39:27.601Z,97849.31
2023-02-19T01:41:30.572Z,97848.50
2023-02-19T01:43:33.861Z,97847.50
2023-02-19T01:45:38.295Z,97846.66
2023-02-19T01:47:41.674Z,97838.03
2023-02-19T01:49:49.546Z,97843.34
2023-02-19T01:51:57.022Z,97840.06
2023-02-19T01:54:06.132Z,97849.03
2023-02-19T01:56:10.694Z,97845.72
2023-02-19T01:58:13.718Z,97840.41
2023-02-19T02:00:18.418Z,97835.13
2023-02-19T02:02:21.229Z,97829.00
2023-02-19T02:04:24.309Z,97831.00
2023-02-19T02:06:32.007Z,97826.69
2023-02-19T02:08:52.577Z,97828.53
2023-02-19T02:10:58.387Z,97823.56
2023-02-19T02:13:01.088Z,97818.44
2023-02-19T02:15:04.202Z,97815.97
2023-02-19T02:17:16.068Z,97811.31
2023-02-19T02:19:33.110Z,97809.22
2023-02-19T02:22:00.121Z,97821.84
2023-02-19T02:24:26.051Z,97805.44
2023-02-19T02:26:46.684Z,97818.06
2023-02-19T02:29:15.489Z,97811.09
2023-02-19T02:31:24.155Z,97806.00
2023-02-19T02:33:34.764Z,97803.34
2023-02-19T02:35:45.192Z,97807.81
2023-02-19T02:37:49.607Z,97813.13
2023-02-19T02:39:53.766Z,97804.53
2023-02-19T02:42:12.002Z,97795.94
2023-02-19T02:44:14.896Z,97788.13
2023-02-19T02:46:24.047Z,97798.91
2023-02-19T02:48:37.081Z,97802.13
2023-02-19T02:50:43.858Z,97811.25
2023-02-19T02:53:07.605Z,97802.63
2023-02-19T02:55:11.885Z,97798.53
2023-02-19T02:57:16.786Z,97802.00
2023-02-19T02:59:23.336Z,97803.00
2023-02-19T03:01:50.633Z,97799.34
2023-02-19T03:03:58.863Z,97800.34
2023-02-19T03:06:08.167Z,97802.19
2023-02-19T03:08:16.028Z,97787.91
2023-02-19T03:10:27.418Z,97787.09
2023-02-19T03:12:50.571Z,97792.41
2023-02-19T03:15:13.843Z,97786.09
2023-02-19T03:17:40.591Z,97782.44
2023-02-19T03:19:46.613Z,97788.75
2023-02-19T03:21:55.970Z,97788.75
2023-02-19T03:24:16.964Z,97798.53
2023-02-19T03:26:22.079Z,97790.38
2023-02-19T03:28:42.979Z,97784.91
2023-02-19T03:30:49.860Z,97782.44
2023-02-19T03:32:59.078Z,97772.03
2023-02-19T03:35:04.613Z,97768.38
2023-02-19T03:37:10.352Z,97764.88
2023-02-19T03:39:16.674Z,97760.41
2023-02-19T03:41:30.049Z,97774.84
2023-02-19T03:43:39.945Z,97769.56
2023-02-19T03:45:52.709Z,97778.16
2023-02-19T03:48:08.589Z,97772.03
2023-02-19T03:50:18.564Z,97773.66
2023-02-19T03:52:30.940Z,97769.56
2023-02-19T03:54:39.555Z,97768.53
2023-02-19T03:56:48.914Z,97770.38
2023-02-19T03:58:58.754Z,97771.38
2023-02-19T04:01:08.172Z,97775.84
2023-02-19T04:03:21.971Z,97776.03
2023-02-19T04:05:28.275Z,97775.69
2023-02-19T04:07:34.106Z,97782.81
2023-02-19T04:09:40.586Z,97784.63
2023-02-19T04:11:43.997Z,97788.09
2023-02-19T04:14:11.285Z,97792.59
2023-02-19T04:16:23.273Z,97792.41
2023-02-19T04:18:31.082Z,97794.88
2023-02-19T04:20:40.275Z,97801.00
2023-02-19T04:22:44.071Z,97802.00
2023-02-19T04:24:50.511Z,97800.53
2023-02-19T04:26:54.509Z,97800.09
2023-02-19T04:28:57.731Z,97812.69
2023-02-19T04:31:00.643Z,97805.19
2023-02-19T04:33:03.412Z,97807.66
2023-02-19T04:35:08.374Z,97813.59
2023-02-19T04:37:11.213Z,97825.84
2023-02-19T04:39:14.011Z,97830.53
2023-02-19T04:41:16.861Z,97834.81
2023-02-19T04:43:19.983Z,97840.13
2023-02-19T04:45:22.761Z,97839.13
2023-02-19T04:47:25.734Z,97827.50
2023-02-19T04:49:28.649Z,97838.78
2023-02-19T04:51:32.770Z,97837.28
2023-02-19T04:53:36.025Z,97831.16
2023-02-19T04:55:39.046Z,97835.63
2023-02-19T04:57:41.822Z,97836.81
2023-02-19T04:59:44.633Z,97835.00
2023-02-19T05:01:47.527Z,97842.94
2023-02-19T05:03:50.361Z,97852.56
2023-02-19T05:05:53.292Z,97860.50
2023-02-19T05:07:57.453Z,97844.78
2023-02-19T05:10:00.244Z,97836.00
2023-02-19T05:12:03.029Z,97813.78
2023-02-19T05:14:05.766Z,97815.97
2023-02-19T05:16:13.180Z,97824.94
2023-02-19T05:18:16.392Z,97827.59
2023-02-19T05:20:19.396Z,97820.28
2023-02-19T05:22:22.175Z,97815.97
2023-02-19T05:24:27.579Z,97815.81
2023-02-19T05:26:31.137Z,97820.28
2023-02-19T05:28:33.991Z,97813.34
2023-02-19T05:30:36.869Z,97800.91
2023-02-19T05:32:40.034Z,97791.13
2023-02-19T05:34:42.806Z,97788.28
2023-02-19T05:36:45.590Z,97781.34
2023-02-19T05:38:49.110Z,97787.47
2023-02-19T05:40:53.267Z,97786.00
2023-02-19T05:42:56.172Z,97778.22
2023-02-19T05:44:59.135Z,97779.88
2023-02-19T05:47:01.903Z,97765.31
2023-02-19T05:49:04.739Z,97767.31
2023-02-19T05:51:10.209Z,97766.31
2023-02-19T05:53:13.319Z,97775.72
2023-02-19T05:55:16.398Z,97789.81
2023-02-19T05:57:21.481Z,97795.84
2023-02-19T05:59:26.525Z,97783.28
2023-02-19T06:01:30.212Z,97780.75
2023-02-19T06:03:32.918Z,97770.28
2023-02-19T06:05:35.708Z,97776.22
2023-02-19T06:07:39.518Z,97780.16
2023-02-19T06:09:42.340Z,97785.91
2023-02-19T06:11:45.208Z,97783.09
2023-02-19T06:13:50.410Z,97782.94
2023-02-19T06:15:53.150Z,97788.03
2023-02-19T06:17:55.970Z,97791.69
2023-02-19T06:19:58.893Z,97813.72
2023-02-19T06:22:01.736Z,97814.56
2023-02-19T06:24:08.854Z,97815.56
2023-02-19T06:26:14.097Z,97813.72
2023-02-19T06:28:16.930Z,97819.84
2023-02-19T06:30:21.460Z,97821.50
2023-02-19T06:32:24.586Z,97827.16
2023-02-19T06:34:28.321Z,97836.81
2023-02-19T06:36:31.287Z,97845.97
2023-02-19T06:38:34.225Z,97860.72
2023-02-19T06:40:36.937Z,97853.78
2023-02-19T06:42:39.821Z,97860.91
2023-02-19T06:44:42.782Z,97863.09
2023-02-19T06:46:47.006Z,97870.41
2023-02-19T06:48:51.120Z,97865.28
2023-02-19T06:50:54.100Z,97866.75
2023-02-19T06:52:56.827Z,97861.47
2023-02-19T06:54:59.789Z,97852.50
2023-02-19T06:57:03.254Z,97859.44
2023-02-19T06:59:08.360Z,97865.41
2023-02-19T07:01:13.046Z,97870.06
2023-02-19T07:03:17.347Z,97867.03
2023-02-19T07:05:20.154Z,97860.91
2023-02-19T07:07:23.080Z,97871.34
2023-02-19T07:09:28.493Z,97871.97
2023-02-19T07:11:33.126Z,97875.63
2023-02-19T07:13:36.054Z,97874.63
2023-02-19T07:15:38.983Z,97886.09
2023-02-19T07:17:41.677Z,97888.88
2023-02-19T07:19:45.794Z,97895.84
2023-02-19T07:21:48.775Z,97901.00
2023-02-19T07:23:51.521Z,97891.22
2023-02-19T07:25:54.410Z,97891.84
2023-02-19T07:27:57.284Z,97888.19
2023-02-19T07:30:00.663Z,97890.66
2023-02-19T07:32:03.612Z,97880.53
2023-02-19T07:34:08.359Z,97894.28
2023-02-19T07:36:13.266Z,97890.06
2023-02-19T07:38:17.860Z,97897.34
2023-02-19T07:40:20.660Z,97912.53
2023-02-19T07:42:23.516Z,97915.47
2023-02-19T07:44:26.372Z,97921.44
2023-02-19T07:46:30.087Z,97916.78
2023-02-19T07:48:34.325Z,97927.69
2023-02-19T07:50:37.237Z,97931.81
2023-02-19T07:52:41.381Z,97922.00
2023-02-19T07:54:44.398Z,97930.44
2023-02-19T07:56:47.140Z,97931.72
2023-02-19T07:58:50.070Z,97931.56
2023-02-19T08:00:52.857Z,97933.31
2023-02-19T08:03:00.431Z,97933.13
2023-02-19T08:05:03.996Z,97943.22
2023-02-19T08:07:06.988Z,97949.81
2023-02-19T08:09:11.188Z,97939.19
2023-02-19T08:11:31.251Z,97942.47
2023-02-19T08:13:34.147Z,97940.66
2023-02-19T08:15:36.980Z,97949.09
2023-02-19T08:17:39.839Z,97953.59
2023-02-19T08:19:43.051Z,97952.41
2023-02-19T08:21:45.873Z,97953.84
2023-02-19T08:23:51.203Z,97960.81
2023-02-19T08:25:59.003Z,97961.31
2023-02-19T08:28:01.908Z,97957.44
2023-02-19T08:30:05.546Z,97958.09
2023-02-19T08:32:08.548Z,97956.16
2023-02-19T08:34:11.341Z,97956.97
2023-02-19T08:36:14.346Z,97955.31
2023-02-19T08:38:17.320Z,97952.03
2023-02-19T08:40:20.205Z,97951.84
2023-02-19T08:42:25.043Z,97962.28
2023-02-19T08:44:27.820Z,97961.31
2023-02-19T08:46:30.897Z,97958.28
2023-02-19T08:48:34.704Z,97968.53
2023-02-19T08:50:38.590Z,97959.75
2023-02-19T08:52:41.344Z,97969.72
2023-02-19T08:54:44.366Z,97966.06
2023-02-19T08:56:47.244Z,97961.38
2023-02-19T08:58:51.345Z,97960.19
2023-02-19T09:00:54.354Z,97954.53
2023-02-19T09:02:59.045Z,97959.66
2023-02-19T09:05:01.991Z,97959.34
2023-02-19T09:07:07.677Z,97965.91
2023-02-19T09:09:10.418Z,97963.94
2023-02-19T09:11:13.967Z,97964.56
2023-02-19T09:13:16.842Z,97964.56
2023-02-19T09:15:20.982Z,97967.56
2023-02-19T09:17:23.902Z,97968.22
2023-02-19T09:19:27.454Z,97962.56
2023-02-19T09:21:30.190Z,97966.84
2023-02-19T09:23:33.980Z,97961.34
2023-02-19T09:25:36.939Z,97961.81
2023-02-19T09:27:39.658Z,97964.13
2023-02-19T09:29:42.643Z,97963.94
2023-02-19T09:31:46.955Z,97965.41
2023-02-19T09:33:50.364Z,97965.03
2023-02-19T09:35:53.104Z,97961.34
2023-02-19T09:37:55.847Z,97960.19
2023-02-19T09:39:58.575Z,97964.69
2023-02-19T09:42:05.582Z,97959.72
2023-02-19T09:44:11.818Z,97958.06
2023-02-19T09:46:25.388Z,97965.03
2023-02-19T09:48:30.040Z,97958.69
2023-02-19T09:50:38.427Z,97959.06
2023-02-19T09:52:46.552Z,97950.47
2023-02-19T09:54:49.480Z,97952.75
2023-02-19T09:56:55.181Z,97959.38
2023-02-19T09:59:00.450Z,97959.81
2023-02-19T10:01:05.666Z,97961.28
2023-02-19T10:03:14.334Z,97968.03
2023-02-19T10:05:18.687Z,97956.59
2023-02-19T10:07:24.353Z,97962.53
2023-02-19T10:09:29.014Z,97962.53
2023-02-19T10:11:31.836Z,97963.56
2023-02-19T10:13:38.509Z,97963.94
2023-02-19T10:15:47.543Z,97973.47
2023-02-19T10:17:50.305Z,97970.81
2023-02-19T10:19:53.702Z,97968.31
2023-02-19T10:21:58.052Z,97970.81
2023-02-19T10:24:04.012Z,97979.78
2023-02-19T10:26:06.736Z,97970.97
2023-02-19T10:28:15.378Z,97978.31
2023-02-19T10:30:22.885Z,97968.88
2023-02-19T10:32:29.519Z,97960.72
2023-02-19T10:34:32.294Z,97974.63
2023-02-19T10:36:38.753Z,97968.69
2023-02-19T10:38:47.847Z,97975.31
2023-02-19T10:40:58.931Z,97974.28
2023-02-19T10:43:03.967Z,97974.94
2023-02-19T10:45:17.792Z,97978.22
2023-02-19T10:47:24.597Z,97977.78
2023-02-19T10:49:30.356Z,97974.28
2023-02-19T10:51:35.935Z,97973.28
2023-02-19T10:53:47.976Z,97963.66
2023-02-19T10:56:08.033Z,97964.31
2023-02-19T10:58:26.090Z,97962.91
2023-02-19T11:00:30.865Z,97969.88
2023-02-19T11:02:33.769Z,97960.91
2023-02-19T11:04:38.255Z,97964.22
2023-02-19T11:06:41.651Z,97959.88
2023-02-19T11:08:52.642Z,97965.69
2023-02-19T11:10:55.960Z,97957.53
2023-02-19T11:13:01.316Z,97955.88
2023-02-19T11:15:23.882Z,97945.88
2023-02-19T11:17:29.312Z,97951.44
2023-02-19T11:19:37.705Z,97953.75
2023-02-19T11:21:40.832Z,97937.44
2023-02-19T11:23:47.501Z,97938.91
2023-02-19T11:25:54.027Z,97939.53
2023-02-19T11:27:58.965Z,97934.06
2023-02-19T11:30:35.222Z,97928.34
2023-02-19T11:32:38.932Z,97924.50
2023-02-19T11:34:41.962Z,97926.34
2023-02-19T11:36:44.767Z,97921.03
2023-02-19T11:38:47.730Z,97916.72
2023-02-19T11:40:58.546Z,97910.38
2023-02-19T11:43:08.663Z,97917.34
2023-02-19T11:45:25.605Z,97916.34
2023-02-19T11:47:51.403Z,97905.69
2023-02-19T11:50:02.897Z,97908.81
2023-02-19T11:52:23.145Z,97905.16
2023-02-19T11:54:42.106Z,97905.97
2023-02-19T11:56:54.100Z,97897.81
2023-02-19T11:59:01.568Z,97894.97
2023-02-19T12:01:14.279Z,97891.72
2023-02-19T12:03:35.695Z,97884.22
2023-02-19T12:05:50.853Z,97885.41
2023-02-19T12:08:29.351Z,97878.63
2023-02-19T12:10:40.080Z,97881.28
2023-02-19T12:12:53.371Z,97870.66
2023-02-19T12:15:29.156Z,97872.94
2023-02-19T12:17:49.609Z,97867.25
2023-02-19T12:20:07.975Z,97859.09
2023-02-19T12:22:24.217Z,97857.06
2023-02-19T12:24:46.172Z,97855.03
2023-02-19T12:27:00.316Z,97853.00
2023-02-19T12:29:20.155Z,97854.81
2023-02-19T12:31:53.177Z,97858.69
2023-02-19T12:34:25.799Z,97853.56
2023-02-19T12:36:38.206Z,97859.72
2023-02-19T12:38:45.415Z,97857.25
2023-02-19T12:41:03.252Z,97851.72
2023-02-19T12:43:15.116Z,97850.72
2023-02-19T12:45:22.308Z,97853.81
2023-02-19T12:47:30.550Z,97851.44
2023-02-19T12:49:37.064Z,97844.06
2023-02-19T12:51:44.792Z,97842.25
2023-02-19T12:53:52.689Z,97844.50
2023-02-19T12:55:57.045Z,97844.16
2023-02-19T12:58:04.350Z,97845.78
2023-02-19T13:00:29.210Z,97848.69
2023-02-19T13:02:36.540Z,97838.88
2023-02-19T13:04:46.185Z,97836.84
2023-02-19T13:06:54.998Z,97840.16
2023-02-19T13:09:09.054Z,97828.50
2023-02-19T13:11:18.477Z,97826.47
2023-02-19T13:13:29.254Z,97829.78
2023-02-19T13:15:37.693Z,97826.72
2023-02-19T13:17:46.525Z,97831.03
2023-02-19T13:19:54.048Z,97823.25
2023-02-19T13:22:33.626Z,97820.38
2023-02-19T13:24:40.827Z,97819.75
2023-02-19T13:26:57.353Z,97826.09
2023-02-19T13:29:20.931Z,97821.78
2023-02-19T13:31:39.364Z,97822.78
2023-02-19T13:33:57.565Z,97820.78
2023-02-19T13:36:10.419Z,97808.09
2023-02-19T13:38:14.554Z,97803.41
2023-02-19T13:40:25.987Z,97808.34
2023-02-19T13:42:32.207Z,97804.47
2023-02-19T13:44:35.484Z,97803.47
2023-02-19T13:46:41.761Z,97808.59
2023-02-19T13:48:46.001Z,97803.88
2023-02-19T13:50:48.882Z,97811.31
2023-02-19T13:52:52.093Z,97810.91
2023-02-19T13:55:33.420Z,97812.16
2023-02-19T13:57:36.296Z,97807.91
2023-02-19T13:59:40.741Z,97792.56
2023-02-19T14:02:17.543Z,97795.22
2023-02-19T14:04:24.430Z,97792.97
2023-02-19T14:06:28.781Z,97802.94
2023-02-19T14:08:48.837Z,97814.72
2023-02-19T14:10:54.806Z,97813.28
2023-02-19T14:12:57.622Z,97807.56
2023-02-19T14:15:43.296Z,97798.75
2023-02-19T14:17:47.220Z,97794.06
2023-02-19T14:20:04.950Z,97791.41
2023-02-19T14:22:41.171Z,97790.03
2023-02-19T14:24:43.989Z,97778.16
2023-02-19T14:26:46.888Z,97771.81
2023-02-19T14:28:52.432Z,97763.63
2023-02-19T14:30:58.268Z,97769.41
2023-02-19T14:33:11.629Z,97766.75
2023-02-19T14:35:21.960Z,97755.72
2023-02-19T14:37:27.024Z,97744.25
2023-02-19T14:39:32.824Z,97755.09
2023-02-19T14:41:40.331Z,97764.31
2023-02-19T14:43:44.900Z,97765.94
2023-02-19T14:45:51.040Z,97757.94
2023-02-19T14:47:56.254Z,97762.00
2023-02-19T14:50:03.689Z,97749.09
2023-02-19T14:52:13.175Z,97754.81
2023-02-19T14:54:20.164Z,97759.06
2023-02-19T14:56:26.307Z,97763.34
2023-02-19T14:58:33.379Z,97767.22
2023-02-19T15:00:38.046Z,97779.72
2023-02-19T15:02:43.969Z,97778.06
2023-02-19T15:04:47.023Z,97786.88
2023-02-19T15:06:52.910Z,97781.34
2023-02-19T15:09:01.499Z,97781.34
2023-02-19T15:11:09.871Z,97786.28
2023-02-19T15:13:17.876Z,97780.34
2023-02-19T15:15:24.221Z,97787.56
2023-02-19T15:17:29.656Z,97778.56
2023-02-19T15:19:36.113Z,97769.56
2023-02-19T15:21:41.022Z,97768.13
2023-02-19T15:23:43.942Z,97767.13
2023-02-19T15:25:49.304Z,97777.56
2023-02-19T15:27:52.058Z,97773.06
2023-02-19T15:29:55.171Z,97758.75
2023-02-19T15:32:00.530Z,97763.06
2023-02-19T15:34:03.425Z,97760.41
2023-02-19T15:36:08.934Z,97764.09
2023-02-19T15:38:13.432Z,97772.69
2023-02-19T15:40:17.086Z,97778.63
2023-02-19T15:42:25.605Z,97787.25
2023-02-19T15:44:39.817Z,97786.22
2023-02-19T15:46:44.204Z,97781.91
2023-02-19T15:48:53.761Z,97773.72
2023-02-19T15:51:04.796Z,97769.44
2023-02-19T15:53:10.661Z,97769.44
2023-02-19T15:55:27.467Z,97770.88
2023-02-19T15:57:37.168Z,97776.19
2023-02-19T15:59:43.864Z,97785.66
2023-02-19T16:01:47.057Z,97791.78
2023-02-19T16:03:50.019Z,97786.47
2023-02-19T16:06:01.282Z,97785.44
2023-02-19T16:08:08.615Z,97783.22
2023-02-19T16:10:21.648Z,97793.47
2023-02-19T16:12:27.297Z,97792.63
2023-02-19T16:14:33.513Z,97802.06
2023-02-19T16:16:39.572Z,97802.91
2023-02-19T16:18:46.594Z,97804.16
2023-02-19T16:20:49.708Z,97802.53
2023-02-19T16:22:53.581Z,97816.03
2023-02-19T16:24:59.190Z,97810.91
2023-02-19T16:27:02.925Z,97806.78
2023-02-19T16:29:05.800Z,97797.53
2023-02-19T16:31:12.442Z,97801.63
2023-02-19T16:33:32.913Z,97804.44
2023-02-19T16:35:36.675Z,97811.81
2023-02-19T16:37:40.830Z,97811.81
2023-02-19T16:39:43.809Z,97815.91
2023-02-19T16:42:16.993Z,97819.31
2023-02-19T16:44:31.987Z,97816.25
2023-02-19T16:46:36.184Z,97823.16
2023-02-19T16:48:39.185Z,97818.22
2023-02-19T16:50:42.365Z,97819.22
2023-02-19T16:52:53.246Z,97831.09
2023-02-19T16:54:56.365Z,97833.69
2023-02-19T16:56:59.134Z,97851.06
2023-02-19T16:59:01.969Z,97843.78
2023-02-19T17:01:06.118Z,97848.25
2023-02-19T17:03:14.917Z,97862.09
2023-02-19T17:05:19.498Z,97860.22
2023-02-19T17:07:23.462Z,97855.50
2023-02-19T17:09:26.699Z,97873.44
2023-02-19T17:11:32.741Z,97877.63
2023-02-19T17:13:35.793Z,97862.53
2023-02-19T17:15:39.454Z,97870.50
2023-02-19T17:17:42.952Z,97870.28
2023-02-19T17:19:47.370Z,97879.78
2023-02-19T17:21:50.862Z,97879.16
2023-02-19T17:23:54.592Z,97889.59
2023-02-19T17:25:57.769Z,97876.06
2023-02-19T17:28:00.721Z,97884.75
2023-02-19T17:30:04.280Z,97883.03
2023-02-19T17:32:08.667Z,97880.56
2023-02-19T17:34:12.239Z,97888.72
2023-02-19T17:36:20.900Z,97886.81
2023-02-19T17:38:24.124Z,97903.66
2023-02-19T17:40:33.416Z,97895.06
2023-02-19T17:42:37.156Z,97903.22
2023-02-19T17:44:40.286Z,97895.06
2023-02-19T17:46:43.770Z,97896.06
2023-02-19T17:48:46.842Z,97895.25
2023-02-19T17:50:52.197Z,97903.38
2023-02-19T17:52:56.460Z,97899.44
2023-02-19T17:54:59.429Z,97905.13
2023-02-19T17:57:02.551Z,97915.75
2023-02-19T17:59:05.444Z,97912.81
2023-02-19T18:01:08.355Z,97902.91
2023-02-19T18:03:11.958Z,97912.06
2023-02-19T18:05:15.109Z,97921.19
2023-02-19T18:07:18.942Z,97912.59
2023-02-19T18:09:23.423Z,97911.59
2023-02-19T18:11:26.313Z,97917.91
2023-02-19T18:13:29.092Z,97914.25
2023-02-19T18:15:32.287Z,97922.56
2023-02-19T18:17:35.428Z,97924.78
2023-02-19T18:19:38.261Z,97932.75
2023-02-19T18:21:41.274Z,97931.25
2023-02-19T18:23:45.981Z,97947.53
2023-02-19T18:25:50.269Z,97938.31
2023-02-19T18:27:53.607Z,97932.16
2023-02-19T18:29:57.277Z,97941.31
2023-02-19T18:32:00.096Z,97934.53
2023-02-19T18:34:03.123Z,97941.97
2023-02-19T18:36:11.398Z,97946.63
2023-02-19T18:38:14.179Z,97936.16
2023-02-19T18:40:16.959Z,97935.19
2023-02-19T18:42:23.153Z,97933.19
2023-02-19T18:44:26.412Z,97936.09
2023-02-19T18:46:30.964Z,97936.22
2023-02-19T18:48:35.092Z,97943.25
2023-02-19T18:50:37.865Z,97943.56
2023-02-19T18:52:40.696Z,97950.00
2023-02-19T18:54:44.498Z,97948.44
2023-02-19T18:56:48.069Z,97950.91
2023-02-19T18:58:52.276Z,97941.13
2023-02-19T19:00:55.205Z,97942.75
2023-02-19T19:02:59.368Z,97941.75
2023-02-19T19:05:02.248Z,97943.22
2023-02-19T19:07:06.281Z,97944.03
2023-02-19T19:09:09.303Z,97944.03
2023-02-19T19:11:12.345Z,97943.69
2023-02-19T19:13:15.263Z,97949.84
2023-02-19T19:15:20.118Z,97948.81
2023-02-19T19:17:23.057Z,97945.72
2023-02-19T19:19:25.900Z,97952.56
2023-02-19T19:21:28.689Z,97949.66
2023-02-19T19:23:33.911Z,97946.81
2023-02-19T19:25:36.763Z,97952.13
2023-02-19T19:27:39.602Z,97953.38
2023-02-19T19:29:42.586Z,97950.09
2023-02-19T19:31:46.958Z,97951.75
2023-02-19T19:33:50.013Z,97949.66
2023-02-19T19:35:52.860Z,97952.19
2023-02-19T19:37:55.623Z,97961.97
2023-02-19T19:39:58.470Z,97962.63
2023-02-19T19:42:01.327Z,97968.94
2023-02-19T19:44:06.793Z,97959.03
2023-02-19T19:46:10.401Z,97968.66
2023-02-19T19:48:14.646Z,97964.78
2023-02-19T19:50:19.111Z,97965.31
2023-02-19T19:52:21.942Z,97963.66
2023-02-19T19:54:24.836Z,97961.00
2023-02-19T19:56:27.809Z,97961.69
2023-02-19T19:58:30.610Z,97964.50
2023-02-19T20:00:33.394Z,97956.00
2023-02-19T20:02:36.129Z,97960.97
2023-02-19T20:04:40.225Z,97961.44
2023-02-19T20:06:43.144Z,97945.34
2023-02-19T20:08:46.092Z,97946.81
2023-02-19T20:10:49.108Z,97947.63
2023-02-19T20:12:51.915Z,97948.63
2023-02-19T20:14:54.961Z,97940.66
2023-02-19T20:16:57.828Z,97947.63
2023-02-19T20:19:00.863Z,97944.34
2023-02-19T20:21:05.440Z,97948.00
2023-02-19T20:23:08.290Z,97951.63
2023-02-19T20:25:12.543Z,97969.59
2023-02-19T20:27:15.469Z,97980.84
2023-02-19T20:29:19.049Z,97981.66
2023-02-19T20:31:22.479Z,97983.50
2023-02-19T20:33:25.511Z,97983.88
2023-02-19T20:35:29.842Z,97985.88
2023-02-19T20:37:33.993Z,97991.00
2023-02-19T20:39:37.435Z,97990.38
2023-02-19T20:41:40.309Z,97979.75
2023-02-19T20:43:43.300Z,97992.00
2023-02-19T20:45:47.731Z,97996.50
2023-02-19T20:47:50.450Z,97998.84
2023-02-19T20:49:53.184Z,97993.88
2023-02-19T20:51:58.039Z,97997.91
2023-02-19T20:54:02.343Z,98013.38
2023-02-19T20:56:06.849Z,98013.25
2023-02-19T20:58:09.653Z,98015.09
2023-02-19T21:00:15.451Z,98012.25
2023-02-19T21:02:19.982Z,98012.44
2023-02-19T21:04:22.733Z,98015.72
2023-02-19T21:06:25.514Z,98025.16
2023-02-19T21:08:28.394Z,98024.88
2023-02-19T21:10:32.917Z,98018.94
2023-02-19T21:12:36.461Z,98030.84
2023-02-19T21:14:39.318Z,98032.31
2023-02-19T21:16:42.034Z,98026.81
2023-02-19T21:18:44.777Z,98015.84
2023-02-19T21:20:47.820Z,97999.09
2023-02-19T21:22:50.585Z,98007.25
2023-02-19T21:24:53.635Z,98000.25
2023-02-19T21:26:57.907Z,98001.13
2023-02-19T21:29:00.669Z,98002.75
2023-02-19T21:31:03.487Z,98001.94
2023-02-19T21:33:06.361Z,98013.38
2023-02-19T21:35:09.667Z,98014.22
2023-02-19T21:37:12.405Z,98021.16
2023-02-19T21:39:18.706Z,98017.19
2023-02-19T21:41:21.483Z,98030.84
2023-02-19T21:43:25.572Z,98024.25
